sensor_id;sensor_type;location;lat;lon;timestamp;P1;durP1;ratioP1;P2;durP2;ratioP2
19347;SDS011;9810;52.480;9.806;2022-10-17T00:00:36;6.87;;;2.73;;
19347;SDS011;9810;52.480;9.806;2022-10-17T00:03:04;4.80;;;2.40;;
19347;SDS011;9810;52.480;9.806;2022-10-17T00:05:31;4.07;;;2.70;;
19347;SDS011;9810;52.480;9.806;2022-10-17T00:08:00;6.82;;;2.95;;
19347;SDS011;9810;52.480;9.806;2022-10-17T00:10:26;3.50;;;2.57;;
19347;SDS011;9810;52.480;9.806;2022-10-17T00:12:54;3.67;;;2.40;;
19347;SDS011;9810;52.480;9.806;2022-10-17T00:15:21;6.00;;;1.80;;
19347;SDS011;9810;52.480;9.806;2022-10-17T00:17:48;6.70;;;2.37;;
19347;SDS011;9810;52.480;9.806;2022-10-17T00:20:15;5.87;;;2.30;;
19347;SDS011;9810;52.480;9.806;2022-10-17T00:22:42;3.00;;;2.20;;
19347;SDS011;9810;52.480;9.806;2022-10-17T00:25:11;4.73;;;2.27;;
19347;SDS011;9810;52.480;9.806;2022-10-17T00:27:39;4.17;;;2.27;;
19347;SDS011;9810;52.480;9.806;2022-10-17T00:30:09;1.83;;;1.67;;
19347;SDS011;9810;52.480;9.806;2022-10-17T00:32:38;5.20;;;2.20;;
19347;SDS011;9810;52.480;9.806;2022-10-17T00:35:06;4.03;;;2.07;;
19347;SDS011;9810;52.480;9.806;2022-10-17T00:37:34;4.73;;;2.23;;
19347;SDS011;9810;52.480;9.806;2022-10-17T00:40:02;2.07;;;1.83;;
19347;SDS011;9810;52.480;9.806;2022-10-17T00:42:31;1.50;;;1.40;;
19347;SDS011;9810;52.480;9.806;2022-10-17T00:45:07;6.47;;;2.33;;
19347;SDS011;9810;52.480;9.806;2022-10-17T00:47:40;6.27;;;2.10;;
19347;SDS011;9810;52.480;9.806;2022-10-17T00:50:09;5.80;;;2.07;;
19347;SDS011;9810;52.480;9.806;2022-10-17T00:52:38;4.53;;;2.20;;
19347;SDS011;9810;52.480;9.806;2022-10-17T00:55:07;2.70;;;1.90;;
19347;SDS011;9810;52.480;9.806;2022-10-17T00:57:40;2.77;;;1.90;;
19347;SDS011;9810;52.480;9.806;2022-10-17T01:00:10;3.80;;;1.90;;
19347;SDS011;9810;52.480;9.806;2022-10-17T01:02:38;3.37;;;1.90;;
19347;SDS011;9810;52.480;9.806;2022-10-17T01:05:06;2.57;;;1.90;;
19347;SDS011;9810;52.480;9.806;2022-10-17T01:07:34;2.27;;;1.93;;
19347;SDS011;9810;52.480;9.806;2022-10-17T01:10:02;3.43;;;1.90;;
19347;SDS011;9810;52.480;9.806;2022-10-17T01:12:32;3.20;;;2.30;;
19347;SDS011;9810;52.480;9.806;2022-10-17T01:15:13;2.17;;;1.57;;
19347;SDS011;9810;52.480;9.806;2022-10-17T01:17:52;2.83;;;1.93;;
19347;SDS011;9810;52.480;9.806;2022-10-17T01:23:53;5.20;;;2.30;;
19347;SDS011;9810;52.480;9.806;2022-10-17T01:26:43;2.27;;;2.07;;
19347;SDS011;9810;52.480;9.806;2022-10-17T01:29:31;2.80;;;1.90;;
19347;SDS011;9810;52.480;9.806;2022-10-17T01:32:06;6.57;;;2.43;;
19347;SDS011;9810;52.480;9.806;2022-10-17T01:34:40;4.37;;;2.20;;
19347;SDS011;9810;52.480;9.806;2022-10-17T01:37:13;2.87;;;2.40;;
19347;SDS011;9810;52.480;9.806;2022-10-17T01:39:47;5.30;;;1.97;;
19347;SDS011;9810;52.480;9.806;2022-10-17T01:42:17;3.50;;;1.93;;
19347;SDS011;9810;52.480;9.806;2022-10-17T01:44:50;4.63;;;2.47;;
19347;SDS011;9810;52.480;9.806;2022-10-17T01:47:23;3.03;;;2.00;;
19347;SDS011;9810;52.480;9.806;2022-10-17T01:49:55;6.70;;;2.67;;
19347;SDS011;9810;52.480;9.806;2022-10-17T01:52:25;3.33;;;2.30;;
19347;SDS011;9810;52.480;9.806;2022-10-17T01:54:55;3.73;;;2.50;;
19347;SDS011;9810;52.480;9.806;2022-10-17T01:57:29;3.03;;;2.33;;
19347;SDS011;9810;52.480;9.806;2022-10-17T01:59:59;4.03;;;2.27;;
19347;SDS011;9810;52.480;9.806;2022-10-17T02:02:31;6.70;;;2.53;;
19347;SDS011;9810;52.480;9.806;2022-10-17T02:05:00;3.67;;;2.33;;
19347;SDS011;9810;52.480;9.806;2022-10-17T02:07:28;5.07;;;3.00;;
19347;SDS011;9810;52.480;9.806;2022-10-17T02:09:55;4.70;;;2.83;;
19347;SDS011;9810;52.480;9.806;2022-10-17T02:12:37;5.70;;;2.17;;
19347;SDS011;9810;52.480;9.806;2022-10-17T02:15:20;3.63;;;2.67;;
19347;SDS011;9810;52.480;9.806;2022-10-17T02:18:03;4.47;;;2.53;;
19347;SDS011;9810;52.480;9.806;2022-10-17T02:20:44;5.30;;;2.60;;
19347;SDS011;9810;52.480;9.806;2022-10-17T02:23:17;4.87;;;2.53;;
19347;SDS011;9810;52.480;9.806;2022-10-17T02:25:51;3.60;;;2.50;;
19347;SDS011;9810;52.480;9.806;2022-10-17T02:28:24;3.80;;;2.50;;
19347;SDS011;9810;52.480;9.806;2022-10-17T02:30:59;6.27;;;2.60;;
19347;SDS011;9810;52.480;9.806;2022-10-17T02:33:34;3.20;;;2.50;;
19347;SDS011;9810;52.480;9.806;2022-10-17T02:36:12;5.03;;;3.43;;
19347;SDS011;9810;52.480;9.806;2022-10-17T02:38:42;3.03;;;2.53;;
19347;SDS011;9810;52.480;9.806;2022-10-17T02:41:12;5.00;;;3.07;;
19347;SDS011;9810;52.480;9.806;2022-10-17T02:43:43;4.67;;;2.63;;
19347;SDS011;9810;52.480;9.806;2022-10-17T02:46:13;2.73;;;2.40;;
19347;SDS011;9810;52.480;9.806;2022-10-17T02:48:47;5.30;;;2.77;;
19347;SDS011;9810;52.480;9.806;2022-10-17T02:51:18;5.13;;;2.27;;
19347;SDS011;9810;52.480;9.806;2022-10-17T02:53:57;4.47;;;2.77;;
19347;SDS011;9810;52.480;9.806;2022-10-17T02:56:37;3.63;;;2.60;;
19347;SDS011;9810;52.480;9.806;2022-10-17T02:59:09;5.90;;;3.20;;
19347;SDS011;9810;52.480;9.806;2022-10-17T03:01:40;6.30;;;3.47;;
19347;SDS011;9810;52.480;9.806;2022-10-17T03:04:10;4.17;;;2.93;;
19347;SDS011;9810;52.480;9.806;2022-10-17T03:06:39;6.20;;;2.83;;
19347;SDS011;9810;52.480;9.806;2022-10-17T03:09:07;7.00;;;2.47;;
19347;SDS011;9810;52.480;9.806;2022-10-17T03:11:34;3.30;;;2.73;;
19347;SDS011;9810;52.480;9.806;2022-10-17T03:14:01;5.20;;;2.90;;
19347;SDS011;9810;52.480;9.806;2022-10-17T03:16:28;7.63;;;3.07;;
19347;SDS011;9810;52.480;9.806;2022-10-17T03:18:56;5.77;;;3.20;;
19347;SDS011;9810;52.480;9.806;2022-10-17T03:21:24;7.10;;;3.43;;
19347;SDS011;9810;52.480;9.806;2022-10-17T03:23:51;6.77;;;3.00;;
19347;SDS011;9810;52.480;9.806;2022-10-17T03:26:18;5.00;;;3.07;;
19347;SDS011;9810;52.480;9.806;2022-10-17T03:28:45;5.57;;;2.83;;
19347;SDS011;9810;52.480;9.806;2022-10-17T03:31:13;6.40;;;3.50;;
19347;SDS011;9810;52.480;9.806;2022-10-17T03:33:42;4.07;;;3.30;;
19347;SDS011;9810;52.480;9.806;2022-10-17T03:36:09;5.80;;;3.53;;
19347;SDS011;9810;52.480;9.806;2022-10-17T03:38:40;5.00;;;3.93;;
19347;SDS011;9810;52.480;9.806;2022-10-17T03:41:07;6.00;;;3.70;;
19347;SDS011;9810;52.480;9.806;2022-10-17T03:43:35;6.70;;;3.67;;
19347;SDS011;9810;52.480;9.806;2022-10-17T03:46:03;5.30;;;3.90;;
19347;SDS011;9810;52.480;9.806;2022-10-17T03:48:31;4.23;;;3.60;;
19347;SDS011;9810;52.480;9.806;2022-10-17T03:50:59;5.13;;;4.20;;
19347;SDS011;9810;52.480;9.806;2022-10-17T03:53:26;6.60;;;3.83;;
19347;SDS011;9810;52.480;9.806;2022-10-17T03:55:56;6.67;;;3.70;;
19347;SDS011;9810;52.480;9.806;2022-10-17T03:58:23;5.93;;;3.93;;
19347;SDS011;9810;52.480;9.806;2022-10-17T04:00:50;7.57;;;4.47;;
19347;SDS011;9810;52.480;9.806;2022-10-17T04:03:17;10.43;;;4.73;;
19347;SDS011;9810;52.480;9.806;2022-10-17T04:05:44;5.87;;;4.57;;
19347;SDS011;9810;52.480;9.806;2022-10-17T04:08:11;5.73;;;3.70;;
19347;SDS011;9810;52.480;9.806;2022-10-17T04:10:39;5.90;;;3.70;;
19347;SDS011;9810;52.480;9.806;2022-10-17T04:13:07;7.83;;;3.90;;
19347;SDS011;9810;52.480;9.806;2022-10-17T04:15:34;3.63;;;3.20;;
19347;SDS011;9810;52.480;9.806;2022-10-17T04:18:01;7.20;;;3.37;;
19347;SDS011;9810;52.480;9.806;2022-10-17T04:20:28;6.53;;;3.90;;
19347;SDS011;9810;52.480;9.806;2022-10-17T04:22:56;12.03;;;4.17;;
19347;SDS011;9810;52.480;9.806;2022-10-17T04:25:23;7.33;;;3.53;;
19347;SDS011;9810;52.480;9.806;2022-10-17T04:27:50;5.07;;;3.50;;
19347;SDS011;9810;52.480;9.806;2022-10-17T04:30:18;6.47;;;4.00;;
19347;SDS011;9810;52.480;9.806;2022-10-17T04:32:45;7.67;;;3.50;;
19347;SDS011;9810;52.480;9.806;2022-10-17T04:35:12;7.93;;;3.87;;
19347;SDS011;9810;52.480;9.806;2022-10-17T04:37:40;5.90;;;3.70;;
19347;SDS011;9810;52.480;9.806;2022-10-17T04:40:07;8.60;;;3.53;;
19347;SDS011;9810;52.480;9.806;2022-10-17T04:42:35;6.80;;;3.00;;
19347;SDS011;9810;52.480;9.806;2022-10-17T04:45:03;6.10;;;3.93;;
19347;SDS011;9810;52.480;9.806;2022-10-17T04:47:32;4.73;;;3.77;;
19347;SDS011;9810;52.480;9.806;2022-10-17T04:50:00;8.27;;;3.50;;
19347;SDS011;9810;52.480;9.806;2022-10-17T04:52:27;6.90;;;3.80;;
19347;SDS011;9810;52.480;9.806;2022-10-17T04:54:54;12.73;;;3.80;;
19347;SDS011;9810;52.480;9.806;2022-10-17T04:57:21;4.33;;;3.73;;
19347;SDS011;9810;52.480;9.806;2022-10-17T04:59:49;9.93;;;4.33;;
19347;SDS011;9810;52.480;9.806;2022-10-17T05:02:16;4.57;;;3.60;;
19347;SDS011;9810;52.480;9.806;2022-10-17T05:04:45;5.77;;;3.90;;
19347;SDS011;9810;52.480;9.806;2022-10-17T05:07:12;5.03;;;3.67;;
19347;SDS011;9810;52.480;9.806;2022-10-17T05:09:39;9.50;;;4.30;;
19347;SDS011;9810;52.480;9.806;2022-10-17T05:12:06;7.57;;;3.77;;
19347;SDS011;9810;52.480;9.806;2022-10-17T05:14:33;4.93;;;3.53;;
19347;SDS011;9810;52.480;9.806;2022-10-17T05:17:00;12.57;;;3.93;;
19347;SDS011;9810;52.480;9.806;2022-10-17T05:19:27;8.93;;;3.10;;
19347;SDS011;9810;52.480;9.806;2022-10-17T05:22:00;10.17;;;3.50;;
19347;SDS011;9810;52.480;9.806;2022-10-17T05:24:27;4.13;;;3.63;;
19347;SDS011;9810;52.480;9.806;2022-10-17T05:26:55;5.20;;;3.33;;
19347;SDS011;9810;52.480;9.806;2022-10-17T05:29:22;4.90;;;3.80;;
19347;SDS011;9810;52.480;9.806;2022-10-17T05:31:49;6.83;;;3.40;;
19347;SDS011;9810;52.480;9.806;2022-10-17T05:34:17;6.13;;;3.35;;
19347;SDS011;9810;52.480;9.806;2022-10-17T05:36:44;5.90;;;4.07;;
19347;SDS011;9810;52.480;9.806;2022-10-17T05:39:13;9.60;;;3.50;;
19347;SDS011;9810;52.480;9.806;2022-10-17T05:41:43;8.30;;;3.87;;
19347;SDS011;9810;52.480;9.806;2022-10-17T05:44:11;7.17;;;3.20;;
19347;SDS011;9810;52.480;9.806;2022-10-17T05:46:38;4.10;;;3.57;;
19347;SDS011;9810;52.480;9.806;2022-10-17T05:49:05;5.93;;;3.70;;
19347;SDS011;9810;52.480;9.806;2022-10-17T05:51:34;6.80;;;3.77;;
19347;SDS011;9810;52.480;9.806;2022-10-17T05:54:03;5.93;;;4.40;;
19347;SDS011;9810;52.480;9.806;2022-10-17T05:56:33;4.43;;;3.80;;
19347;SDS011;9810;52.480;9.806;2022-10-17T05:59:00;8.70;;;3.83;;
19347;SDS011;9810;52.480;9.806;2022-10-17T06:01:27;6.30;;;3.47;;
19347;SDS011;9810;52.480;9.806;2022-10-17T06:03:55;7.97;;;3.53;;
19347;SDS011;9810;52.480;9.806;2022-10-17T06:06:22;7.70;;;4.07;;
19347;SDS011;9810;52.480;9.806;2022-10-17T06:08:49;8.30;;;3.67;;
19347;SDS011;9810;52.480;9.806;2022-10-17T06:11:17;6.80;;;3.90;;
19347;SDS011;9810;52.480;9.806;2022-10-17T06:13:45;7.47;;;4.03;;
19347;SDS011;9810;52.480;9.806;2022-10-17T06:16:12;5.17;;;3.73;;
19347;SDS011;9810;52.480;9.806;2022-10-17T06:18:39;7.23;;;3.87;;
19347;SDS011;9810;52.480;9.806;2022-10-17T06:21:07;10.63;;;4.20;;
19347;SDS011;9810;52.480;9.806;2022-10-17T06:23:36;10.47;;;3.50;;
19347;SDS011;9810;52.480;9.806;2022-10-17T06:26:04;6.40;;;3.80;;
19347;SDS011;9810;52.480;9.806;2022-10-17T06:28:32;4.53;;;3.60;;
19347;SDS011;9810;52.480;9.806;2022-10-17T06:31:04;7.03;;;3.27;;
19347;SDS011;9810;52.480;9.806;2022-10-17T06:33:32;4.00;;;3.60;;
19347;SDS011;9810;52.480;9.806;2022-10-17T06:35:59;7.73;;;3.57;;
19347;SDS011;9810;52.480;9.806;2022-10-17T06:38:26;7.43;;;3.73;;
19347;SDS011;9810;52.480;9.806;2022-10-17T06:40:54;5.90;;;3.23;;
19347;SDS011;9810;52.480;9.806;2022-10-17T06:43:27;4.57;;;3.40;;
19347;SDS011;9810;52.480;9.806;2022-10-17T06:45:54;5.83;;;3.50;;
19347;SDS011;9810;52.480;9.806;2022-10-17T06:48:23;4.87;;;3.53;;
19347;SDS011;9810;52.480;9.806;2022-10-17T06:50:50;5.60;;;3.43;;
19347;SDS011;9810;52.480;9.806;2022-10-17T06:53:18;3.70;;;3.30;;
19347;SDS011;9810;52.480;9.806;2022-10-17T06:55:49;6.83;;;3.10;;
19347;SDS011;9810;52.480;9.806;2022-10-17T06:58:17;5.18;;;3.17;;
19347;SDS011;9810;52.480;9.806;2022-10-17T07:00:44;6.77;;;3.03;;
19347;SDS011;9810;52.480;9.806;2022-10-17T07:03:11;5.90;;;2.67;;
19347;SDS011;9810;52.480;9.806;2022-10-17T07:05:40;3.63;;;2.53;;
19347;SDS011;9810;52.480;9.806;2022-10-17T07:08:07;3.27;;;2.70;;
19347;SDS011;9810;52.480;9.806;2022-10-17T07:10:35;5.57;;;2.77;;
19347;SDS011;9810;52.480;9.806;2022-10-17T07:13:02;7.23;;;2.43;;
19347;SDS011;9810;52.480;9.806;2022-10-17T07:15:29;3.97;;;2.30;;
19347;SDS011;9810;52.480;9.806;2022-10-17T07:17:57;5.13;;;1.97;;
19347;SDS011;9810;52.480;9.806;2022-10-17T07:20:24;2.93;;;2.00;;
19347;SDS011;9810;52.480;9.806;2022-10-17T07:22:53;8.93;;;3.27;;
19347;SDS011;9810;52.480;9.806;2022-10-17T07:25:20;5.63;;;2.47;;
19347;SDS011;9810;52.480;9.806;2022-10-17T07:27:47;6.33;;;2.27;;
19347;SDS011;9810;52.480;9.806;2022-10-17T07:30:15;3.50;;;2.10;;
19347;SDS011;9810;52.480;9.806;2022-10-17T07:32:42;3.50;;;1.70;;
19347;SDS011;9810;52.480;9.806;2022-10-17T07:35:09;1.83;;;1.63;;
19347;SDS011;9810;52.480;9.806;2022-10-17T07:37:37;7.17;;;1.50;;
19347;SDS011;9810;52.480;9.806;2022-10-17T07:40:07;6.37;;;1.80;;
19347;SDS011;9810;52.480;9.806;2022-10-17T07:42:35;4.77;;;1.90;;
19347;SDS011;9810;52.480;9.806;2022-10-17T07:45:03;3.78;;;2.33;;
19347;SDS011;9810;52.480;9.806;2022-10-17T07:47:31;2.78;;;1.63;;
19347;SDS011;9810;52.480;9.806;2022-10-17T07:49:59;2.28;;;1.83;;
19347;SDS011;9810;52.480;9.806;2022-10-17T07:52:27;3.13;;;1.75;;
19347;SDS011;9810;52.480;9.806;2022-10-17T07:54:54;5.15;;;1.60;;
19347;SDS011;9810;52.480;9.806;2022-10-17T07:57:22;2.37;;;1.53;;
19347;SDS011;9810;52.480;9.806;2022-10-17T07:59:50;3.20;;;1.67;;
19347;SDS011;9810;52.480;9.806;2022-10-17T08:02:20;7.30;;;1.80;;
19347;SDS011;9810;52.480;9.806;2022-10-17T08:04:48;2.87;;;1.73;;
19347;SDS011;9810;52.480;9.806;2022-10-17T08:07:16;3.53;;;1.77;;
19347;SDS011;9810;52.480;9.806;2022-10-17T08:09:43;2.90;;;1.50;;
19347;SDS011;9810;52.480;9.806;2022-10-17T08:12:12;3.70;;;2.20;;
19347;SDS011;9810;52.480;9.806;2022-10-17T08:14:41;4.30;;;2.20;;
19347;SDS011;9810;52.480;9.806;2022-10-17T08:17:08;5.30;;;1.80;;
19347;SDS011;9810;52.480;9.806;2022-10-17T08:19:36;4.10;;;1.90;;
19347;SDS011;9810;52.480;9.806;2022-10-17T08:22:05;3.30;;;1.90;;
19347;SDS011;9810;52.480;9.806;2022-10-17T08:24:33;3.80;;;1.88;;
19347;SDS011;9810;52.480;9.806;2022-10-17T08:27:00;4.35;;;1.88;;
19347;SDS011;9810;52.480;9.806;2022-10-17T08:29:35;2.20;;;1.83;;
19347;SDS011;9810;52.480;9.806;2022-10-17T08:32:04;4.50;;;1.95;;
19347;SDS011;9810;52.480;9.806;2022-10-17T08:34:33;5.47;;;1.63;;
19347;SDS011;9810;52.480;9.806;2022-10-17T08:37:00;1.30;;;1.20;;
19347;SDS011;9810;52.480;9.806;2022-10-17T08:39:27;3.78;;;1.27;;
19347;SDS011;9810;52.480;9.806;2022-10-17T08:41:58;10.32;;;2.15;;
19347;SDS011;9810;52.480;9.806;2022-10-17T08:44:39;5.35;;;1.95;;
19347;SDS011;9810;52.480;9.806;2022-10-17T08:47:18;7.60;;;1.73;;
19347;SDS011;9810;52.480;9.806;2022-10-17T08:49:55;4.05;;;1.52;;
19347;SDS011;9810;52.480;9.806;2022-10-17T08:52:28;3.58;;;1.50;;
19347;SDS011;9810;52.480;9.806;2022-10-17T08:55:01;4.30;;;1.85;;
19347;SDS011;9810;52.480;9.806;2022-10-17T08:57:29;3.42;;;1.27;;
19347;SDS011;9810;52.480;9.806;2022-10-17T08:59:56;4.10;;;1.63;;
19347;SDS011;9810;52.480;9.806;2022-10-17T09:02:33;6.30;;;1.95;;
19347;SDS011;9810;52.480;9.806;2022-10-17T09:08:15;4.63;;;1.90;;
19347;SDS011;9810;52.480;9.806;2022-10-17T09:10:52;2.38;;;1.60;;
19347;SDS011;9810;52.480;9.806;2022-10-17T09:13:29;3.33;;;1.80;;
19347;SDS011;9810;52.480;9.806;2022-10-17T09:16:08;15.88;;;2.42;;
19347;SDS011;9810;52.480;9.806;2022-10-17T09:18:49;6.82;;;2.28;;
19347;SDS011;9810;52.480;9.806;2022-10-17T09:21:25;2.90;;;2.03;;
19347;SDS011;9810;52.480;9.806;2022-10-17T09:23:59;3.38;;;1.65;;
19347;SDS011;9810;52.480;9.806;2022-10-17T09:26:29;2.33;;;1.65;;
19347;SDS011;9810;52.480;9.806;2022-10-17T09:28:57;2.90;;;1.63;;
19347;SDS011;9810;52.480;9.806;2022-10-17T09:31:28;2.97;;;1.80;;
19347;SDS011;9810;52.480;9.806;2022-10-17T09:34:01;5.43;;;1.90;;
19347;SDS011;9810;52.480;9.806;2022-10-17T09:36:29;4.97;;;2.00;;
19347;SDS011;9810;52.480;9.806;2022-10-17T09:39:00;5.15;;;1.58;;
19347;SDS011;9810;52.480;9.806;2022-10-17T09:41:32;5.40;;;1.90;;
19347;SDS011;9810;52.480;9.806;2022-10-17T09:44:07;4.65;;;1.73;;
19347;SDS011;9810;52.480;9.806;2022-10-17T09:46:42;1.60;;;1.50;;
19347;SDS011;9810;52.480;9.806;2022-10-17T09:49:22;4.07;;;1.70;;
19347;SDS011;9810;52.480;9.806;2022-10-17T09:51:54;8.07;;;1.77;;
19347;SDS011;9810;52.480;9.806;2022-10-17T09:54:23;1.85;;;1.52;;
19347;SDS011;9810;52.480;9.806;2022-10-17T09:56:57;3.65;;;2.15;;
19347;SDS011;9810;52.480;9.806;2022-10-17T09:59:30;4.67;;;1.80;;
19347;SDS011;9810;52.480;9.806;2022-10-17T10:02:08;16.27;;;1.90;;
19347;SDS011;9810;52.480;9.806;2022-10-17T10:04:55;2.80;;;1.83;;
19347;SDS011;9810;52.480;9.806;2022-10-17T10:07:26;5.70;;;1.80;;
19347;SDS011;9810;52.480;9.806;2022-10-17T10:09:54;4.13;;;1.40;;
19347;SDS011;9810;52.480;9.806;2022-10-17T10:12:23;3.45;;;1.67;;
19347;SDS011;9810;52.480;9.806;2022-10-17T10:14:52;6.68;;;2.05;;
19347;SDS011;9810;52.480;9.806;2022-10-17T10:17:27;3.92;;;2.15;;
19347;SDS011;9810;52.480;9.806;2022-10-17T10:20:02;8.88;;;2.22;;
19347;SDS011;9810;52.480;9.806;2022-10-17T10:23:10;6.18;;;2.42;;
19347;SDS011;9810;52.480;9.806;2022-10-17T10:25:47;5.88;;;2.50;;
19347;SDS011;9810;52.480;9.806;2022-10-17T10:28:18;4.38;;;2.63;;
19347;SDS011;9810;52.480;9.806;2022-10-17T10:30:47;4.45;;;1.95;;
19347;SDS011;9810;52.480;9.806;2022-10-17T10:33:17;3.33;;;2.00;;
19347;SDS011;9810;52.480;9.806;2022-10-17T10:35:52;7.60;;;2.38;;
19347;SDS011;9810;52.480;9.806;2022-10-17T10:38:21;4.70;;;2.00;;
19347;SDS011;9810;52.480;9.806;2022-10-17T10:40:50;12.15;;;2.00;;
19347;SDS011;9810;52.480;9.806;2022-10-17T10:43:21;4.68;;;1.60;;
19347;SDS011;9810;52.480;9.806;2022-10-17T10:45:58;4.82;;;1.77;;
19347;SDS011;9810;52.480;9.806;2022-10-17T10:48:29;2.30;;;1.83;;
19347;SDS011;9810;52.480;9.806;2022-10-17T10:51:00;7.25;;;2.95;;
19347;SDS011;9810;52.480;9.806;2022-10-17T10:53:40;5.10;;;2.08;;
19347;SDS011;9810;52.480;9.806;2022-10-17T10:56:12;7.95;;;2.22;;
19347;SDS011;9810;52.480;9.806;2022-10-17T10:58:48;13.65;;;4.10;;
19347;SDS011;9810;52.480;9.806;2022-10-17T11:01:21;12.63;;;3.70;;
19347;SDS011;9810;52.480;9.806;2022-10-17T11:03:56;4.90;;;2.17;;
19347;SDS011;9810;52.480;9.806;2022-10-17T11:06:35;6.37;;;2.10;;
19347;SDS011;9810;52.480;9.806;2022-10-17T11:09:09;4.40;;;2.27;;
19347;SDS011;9810;52.480;9.806;2022-10-17T11:11:42;2.63;;;2.20;;
19347;SDS011;9810;52.480;9.806;2022-10-17T11:14:14;5.20;;;1.83;;
19347;SDS011;9810;52.480;9.806;2022-10-17T11:16:45;3.30;;;1.80;;
19347;SDS011;9810;52.480;9.806;2022-10-17T11:19:20;3.03;;;1.88;;
19347;SDS011;9810;52.480;9.806;2022-10-17T11:21:59;7.20;;;2.05;;
19347;SDS011;9810;52.480;9.806;2022-10-17T11:24:35;4.80;;;1.58;;
19347;SDS011;9810;52.480;9.806;2022-10-17T11:27:08;3.47;;;1.80;;
19347;SDS011;9810;52.480;9.806;2022-10-17T11:29:39;8.15;;;1.85;;
19347;SDS011;9810;52.480;9.806;2022-10-17T11:32:08;4.80;;;1.75;;
19347;SDS011;9810;52.480;9.806;2022-10-17T11:34:41;5.05;;;1.92;;
19347;SDS011;9810;52.480;9.806;2022-10-17T11:37:17;5.38;;;1.42;;
19347;SDS011;9810;52.480;9.806;2022-10-17T11:39:49;4.30;;;1.45;;
19347;SDS011;9810;52.480;9.806;2022-10-17T11:42:20;4.45;;;1.90;;
19347;SDS011;9810;52.480;9.806;2022-10-17T11:44:54;3.78;;;2.15;;
19347;SDS011;9810;52.480;9.806;2022-10-17T11:47:29;2.28;;;1.55;;
19347;SDS011;9810;52.480;9.806;2022-10-17T11:50:02;5.83;;;1.93;;
19347;SDS011;9810;52.480;9.806;2022-10-17T11:52:40;5.32;;;1.98;;
19347;SDS011;9810;52.480;9.806;2022-10-17T11:55:13;4.05;;;2.13;;
19347;SDS011;9810;52.480;9.806;2022-10-17T11:57:53;3.47;;;1.83;;
19347;SDS011;9810;52.480;9.806;2022-10-17T12:00:32;1.92;;;1.35;;
19347;SDS011;9810;52.480;9.806;2022-10-17T12:03:18;1.95;;;1.58;;
19347;SDS011;9810;52.480;9.806;2022-10-17T12:05:56;3.40;;;1.80;;
19347;SDS011;9810;52.480;9.806;2022-10-17T12:08:32;5.53;;;2.37;;
19347;SDS011;9810;52.480;9.806;2022-10-17T12:11:07;4.03;;;2.07;;
19347;SDS011;9810;52.480;9.806;2022-10-17T12:13:51;5.10;;;2.10;;
19347;SDS011;9810;52.480;9.806;2022-10-17T12:16:36;3.10;;;2.13;;
19347;SDS011;9810;52.480;9.806;2022-10-17T12:19:22;6.03;;;2.13;;
19347;SDS011;9810;52.480;9.806;2022-10-17T12:21:53;4.90;;;2.20;;
19347;SDS011;9810;52.480;9.806;2022-10-17T12:24:30;6.43;;;1.80;;
19347;SDS011;9810;52.480;9.806;2022-10-17T12:27:20;6.47;;;2.13;;
19347;SDS011;9810;52.480;9.806;2022-10-17T12:29:49;4.07;;;1.97;;
19347;SDS011;9810;52.480;9.806;2022-10-17T12:32:23;6.33;;;2.10;;
19347;SDS011;9810;52.480;9.806;2022-10-17T12:34:51;2.93;;;1.77;;
19347;SDS011;9810;52.480;9.806;2022-10-17T12:49:20;6.87;;;1.77;;
19347;SDS011;9810;52.480;9.806;2022-10-17T12:52:05;3.53;;;2.30;;
19347;SDS011;9810;52.480;9.806;2022-10-17T12:54:46;4.75;;;1.98;;
19347;SDS011;9810;52.480;9.806;2022-10-17T12:57:19;5.20;;;2.35;;
19347;SDS011;9810;52.480;9.806;2022-10-17T12:59:50;3.50;;;2.10;;
19347;SDS011;9810;52.480;9.806;2022-10-17T13:02:19;5.72;;;2.22;;
19347;SDS011;9810;52.480;9.806;2022-10-17T13:04:57;6.93;;;2.25;;
19347;SDS011;9810;52.480;9.806;2022-10-17T13:07:32;6.78;;;2.60;;
19347;SDS011;9810;52.480;9.806;2022-10-17T13:10:01;7.82;;;2.20;;
19347;SDS011;9810;52.480;9.806;2022-10-17T13:12:29;2.60;;;2.40;;
19347;SDS011;9810;52.480;9.806;2022-10-17T13:15:03;7.90;;;2.08;;
19347;SDS011;9810;52.480;9.806;2022-10-17T13:17:32;7.63;;;2.05;;
19347;SDS011;9810;52.480;9.806;2022-10-17T13:20:00;6.13;;;2.15;;
19347;SDS011;9810;52.480;9.806;2022-10-17T13:22:28;4.93;;;2.85;;
19347;SDS011;9810;52.480;9.806;2022-10-17T13:25:07;2.60;;;1.90;;
19347;SDS011;9810;52.480;9.806;2022-10-17T13:27:39;5.03;;;2.27;;
19347;SDS011;9810;52.480;9.806;2022-10-17T13:30:22;4.97;;;2.33;;
19347;SDS011;9810;52.480;9.806;2022-10-17T13:32:51;5.03;;;2.20;;
19347;SDS011;9810;52.480;9.806;2022-10-17T13:35:23;12.90;;;2.70;;
19347;SDS011;9810;52.480;9.806;2022-10-17T13:37:54;5.20;;;3.03;;
19347;SDS011;9810;52.480;9.806;2022-10-17T13:40:22;10.32;;;3.30;;
19347;SDS011;9810;52.480;9.806;2022-10-17T13:42:52;6.78;;;2.83;;
19347;SDS011;9810;52.480;9.806;2022-10-17T13:45:26;2.53;;;2.08;;
19347;SDS011;9810;52.480;9.806;2022-10-17T13:47:56;5.18;;;2.13;;
19347;SDS011;9810;52.480;9.806;2022-10-17T13:50:27;5.25;;;1.83;;
19347;SDS011;9810;52.480;9.806;2022-10-17T13:53:06;9.50;;;2.17;;
19347;SDS011;9810;52.480;9.806;2022-10-17T13:55:51;11.98;;;3.47;;
19347;SDS011;9810;52.480;9.806;2022-10-17T13:58:24;7.33;;;2.20;;
19347;SDS011;9810;52.480;9.806;2022-10-17T14:00:53;6.45;;;2.63;;
19347;SDS011;9810;52.480;9.806;2022-10-17T14:03:21;4.93;;;2.53;;
19347;SDS011;9810;52.480;9.806;2022-10-17T14:06:02;7.43;;;2.60;;
19347;SDS011;9810;52.480;9.806;2022-10-17T14:08:33;8.27;;;2.70;;
19347;SDS011;9810;52.480;9.806;2022-10-17T14:11:01;4.80;;;2.63;;
19347;SDS011;9810;52.480;9.806;2022-10-17T14:13:38;3.42;;;2.60;;
19347;SDS011;9810;52.480;9.806;2022-10-17T14:16:08;9.55;;;2.53;;
19347;SDS011;9810;52.480;9.806;2022-10-17T14:18:35;4.63;;;2.90;;
19347;SDS011;9810;52.480;9.806;2022-10-17T14:21:05;5.30;;;2.70;;
19347;SDS011;9810;52.480;9.806;2022-10-17T14:23:34;13.50;;;2.70;;
19347;SDS011;9810;52.480;9.806;2022-10-17T14:26:04;8.23;;;3.28;;
19347;SDS011;9810;52.480;9.806;2022-10-17T14:28:33;24.40;;;3.47;;
19347;SDS011;9810;52.480;9.806;2022-10-17T14:33:57;4.18;;;2.70;;
19347;SDS011;9810;52.480;9.806;2022-10-17T14:39:16;4.10;;;2.67;;
19347;SDS011;9810;52.480;9.806;2022-10-17T14:41:46;4.23;;;2.40;;
19347;SDS011;9810;52.480;9.806;2022-10-17T14:44:16;4.68;;;2.97;;
19347;SDS011;9810;52.480;9.806;2022-10-17T14:46:52;6.85;;;3.80;;
19347;SDS011;9810;52.480;9.806;2022-10-17T14:49:27;10.77;;;2.85;;
19347;SDS011;9810;52.480;9.806;2022-10-17T14:54:51;6.23;;;2.97;;
19347;SDS011;9810;52.480;9.806;2022-10-17T14:57:21;6.10;;;2.83;;
19347;SDS011;9810;52.480;9.806;2022-10-17T14:59:50;5.80;;;4.00;;
19347;SDS011;9810;52.480;9.806;2022-10-17T15:02:18;6.33;;;3.40;;
19347;SDS011;9810;52.480;9.806;2022-10-17T15:04:46;9.33;;;2.87;;
19347;SDS011;9810;52.480;9.806;2022-10-17T15:07:13;7.63;;;3.17;;
19347;SDS011;9810;52.480;9.806;2022-10-17T15:09:42;7.30;;;3.07;;
19347;SDS011;9810;52.480;9.806;2022-10-17T15:12:12;7.03;;;3.53;;
19347;SDS011;9810;52.480;9.806;2022-10-17T15:14:41;5.87;;;3.87;;
19347;SDS011;9810;52.480;9.806;2022-10-17T15:17:13;16.27;;;3.50;;
19347;SDS011;9810;52.480;9.806;2022-10-17T15:19:42;9.37;;;4.07;;
19347;SDS011;9810;52.480;9.806;2022-10-17T15:22:10;5.03;;;3.28;;
19347;SDS011;9810;52.480;9.806;2022-10-17T15:24:37;4.15;;;3.20;;
19347;SDS011;9810;52.480;9.806;2022-10-17T15:27:05;9.77;;;3.33;;
19347;SDS011;9810;52.480;9.806;2022-10-17T15:29:39;5.40;;;3.30;;
19347;SDS011;9810;52.480;9.806;2022-10-17T15:32:06;31.37;;;5.07;;
19347;SDS011;9810;52.480;9.806;2022-10-17T15:34:33;7.50;;;3.70;;
19347;SDS011;9810;52.480;9.806;2022-10-17T15:37:02;8.47;;;3.47;;
19347;SDS011;9810;52.480;9.806;2022-10-17T15:39:30;12.32;;;3.50;;
19347;SDS011;9810;52.480;9.806;2022-10-17T15:41:58;11.47;;;3.97;;
19347;SDS011;9810;52.480;9.806;2022-10-17T15:44:25;8.07;;;4.03;;
19347;SDS011;9810;52.480;9.806;2022-10-17T15:46:52;12.80;;;3.43;;
19347;SDS011;9810;52.480;9.806;2022-10-17T15:49:22;12.33;;;3.70;;